sensor_id;sensor_type;location;lat;lon;timestamp;pressure;altitude;pressure_sealevel;temperature;humidity
50672;BME280;46021;55.882;37.654;2023-04-08T00:00:07;100653.66;;;1.60;46.19
50672;BME280;46021;55.882;37.654;2023-04-08T00:02:40;100658.88;;;1.64;45.54
50672;BME280;46021;55.882;37.654;2023-04-08T00:05:08;100663.09;;;1.61;45.73
50672;BME280;46021;55.882;37.654;2023-04-08T00:07:35;100654.47;;;1.57;45.41
50672;BME280;46021;55.882;37.654;2023-04-08T00:10:02;100659.59;;;1.55;45.99
50672;BME280;46021;55.882;37.654;2023-04-08T00:12:30;100664.75;;;1.59;45.45
50672;BME280;46021;55.882;37.654;2023-04-08T00:14:57;100662.06;;;1.52;45.15
50672;BME280;46021;55.882;37.654;2023-04-08T00:17:24;100664.53;;;1.46;45.75
50672;BME280;46021;55.882;37.654;2023-04-08T00:19:53;100661.06;;;1.44;46.03
50672;BME280;46021;55.882;37.654;2023-04-08T00:22:21;100660.94;;;1.38;47.05
50672;BME280;46021;55.882;37.654;2023-04-08T00:24:48;100656.66;;;1.39;45.46
50672;BME280;46021;55.882;37.654;2023-04-08T00:27:15;100665.31;;;1.42;46.24
50672;BME280;46021;55.882;37.654;2023-04-08T00:29:42;100654.13;;;1.40;45.25
50672;BME280;46021;55.882;37.654;2023-04-08T00:32:09;100653.97;;;1.34;45.61
50672;BME280;46021;55.882;37.654;2023-04-08T00:34:36;100654.75;;;1.30;45.13
50672;BME280;46021;55.882;37.654;2023-04-08T00:37:05;100658.19;;;1.30;45.02
50672;BME280;46021;55.882;37.654;2023-04-08T00:39:32;100659.75;;;1.24;46.64
50672;BME280;46021;55.882;37.654;2023-04-08T00:42:00;100663.19;;;1.24;46.09
50672;BME280;46021;55.882;37.654;2023-04-08T00:44:28;100663.19;;;1.24;45.96
50672;BME280;46021;55.882;37.654;2023-04-08T00:46:55;100660.53;;;1.20;46.06
50672;BME280;46021;55.882;37.654;2023-04-08T00:49:22;100663.88;;;1.15;46.34
50672;BME280;46021;55.882;37.654;2023-04-08T00:51:50;100659.38;;;1.07;46.46
50672;BME280;46021;55.882;37.654;2023-04-08T00:54:18;100662.00;;;1.08;46.71
50672;BME280;46021;55.882;37.654;2023-04-08T00:56:45;100667.19;;;1.11;45.79
50672;BME280;46021;55.882;37.654;2023-04-08T00:59:12;100663.78;;;1.12;46.03
50672;BME280;46021;55.882;37.654;2023-04-08T01:01:42;100663.72;;;1.09;46.37
50672;BME280;46021;55.882;37.654;2023-04-08T01:04:18;100667.00;;;1.04;47.81
50672;BME280;46021;55.882;37.654;2023-04-08T01:06:52;100659.31;;;1.04;46.74
50672;BME280;46021;55.882;37.654;2023-04-08T01:09:27;100665.34;;;1.04;46.31
50672;BME280;46021;55.882;37.654;2023-04-08T01:11:56;100661.81;;;1.01;46.67
50672;BME280;46021;55.882;37.654;2023-04-08T01:14:25;100664.19;;;0.91;47.40
50672;BME280;46021;55.882;37.654;2023-04-08T01:16:54;100657.41;;;0.95;46.44
50672;BME280;46021;55.882;37.654;2023-04-08T01:19:28;100663.28;;;0.89;47.99
50672;BME280;46021;55.882;37.654;2023-04-08T01:22:02;100658.97;;;0.88;48.28
50672;BME280;46021;55.882;37.654;2023-04-08T01:24:35;100658.09;;;0.88;46.86
50672;BME280;46021;55.882;37.654;2023-04-08T01:27:06;100658.09;;;0.88;47.78
50672;BME280;46021;55.882;37.654;2023-04-08T01:29:36;100649.38;;;0.80;48.12
50672;BME280;46021;55.882;37.654;2023-04-08T01:32:06;100658.91;;;0.85;47.54
50672;BME280;46021;55.882;37.654;2023-04-08T01:34:35;100658.03;;;0.85;47.77
50672;BME280;46021;55.882;37.654;2023-04-08T01:37:03;100658.84;;;0.82;46.75
50672;BME280;46021;55.882;37.654;2023-04-08T01:39:30;100658.88;;;0.84;46.78
50672;BME280;46021;55.882;37.654;2023-04-08T01:41:59;100667.28;;;0.78;47.66
50672;BME280;46021;55.882;37.654;2023-04-08T01:44:29;100660.44;;;0.78;48.25
50672;BME280;46021;55.882;37.654;2023-04-08T01:46:58;100664.69;;;0.76;47.23
50672;BME280;46021;55.882;37.654;2023-04-08T01:49:26;100662.94;;;0.75;48.62
50672;BME280;46021;55.882;37.654;2023-04-08T01:51:55;100665.50;;;0.74;47.48
50672;BME280;46021;55.882;37.654;2023-04-08T01:54:24;100664.47;;;0.67;48.03
50672;BME280;46021;55.882;37.654;2023-04-08T01:56:53;100663.50;;;0.64;47.40
50672;BME280;46021;55.882;37.654;2023-04-08T01:59:23;100658.44;;;0.65;48.19
50672;BME280;46021;55.882;37.654;2023-04-08T02:01:56;100666.94;;;0.64;47.31
50672;BME280;46021;55.882;37.654;2023-04-08T02:04:23;100672.91;;;0.63;48.23
50672;BME280;46021;55.882;37.654;2023-04-08T02:06:50;100666.84;;;0.60;48.38
50672;BME280;46021;55.882;37.654;2023-04-08T02:09:17;100645.22;;;0.50;48.83
50672;BME280;46021;55.882;37.654;2023-04-08T02:11:45;100659.03;;;0.55;47.53
50672;BME280;46021;55.882;37.654;2023-04-08T02:14:12;100660.69;;;0.53;47.63
50672;BME280;46021;55.882;37.654;2023-04-08T02:16:43;100662.34;;;0.51;47.53
50672;BME280;46021;55.882;37.654;2023-04-08T02:19:19;100662.28;;;0.48;48.85
50672;BME280;46021;55.882;37.654;2023-04-08T02:22:05;100654.41;;;0.40;49.15
50672;BME280;46021;55.882;37.654;2023-04-08T02:24:35;100656.97;;;0.42;49.23
50672;BME280;46021;55.882;37.654;2023-04-08T02:27:04;100662.91;;;0.39;48.43
50672;BME280;46021;55.882;37.654;2023-04-08T02:29:33;100663.84;;;0.43;47.80
50672;BME280;46021;55.882;37.654;2023-04-08T02:32:03;100668.91;;;0.39;48.98
50672;BME280;46021;55.882;37.654;2023-04-08T02:34:34;100667.25;;;0.42;49.23
50672;BME280;46021;55.882;37.654;2023-04-08T02:37:01;100676.69;;;0.43;49.60
50672;BME280;46021;55.882;37.654;2023-04-08T02:39:32;100668.03;;;0.39;49.46
50672;BME280;46021;55.882;37.654;2023-04-08T02:41:59;100682.63;;;0.42;48.73
50672;BME280;46021;55.882;37.654;2023-04-08T02:44:26;100678.34;;;0.41;49.81
50672;BME280;46021;55.882;37.654;2023-04-08T02:46:53;100682.63;;;0.42;50.00
50672;BME280;46021;55.882;37.654;2023-04-08T02:49:21;100675.88;;;0.44;48.86
50672;BME280;46021;55.882;37.654;2023-04-08T02:51:49;100680.19;;;0.46;49.54
50672;BME280;46021;55.882;37.654;2023-04-08T02:54:16;100677.69;;;0.48;49.75
50672;BME280;46021;55.882;37.654;2023-04-08T02:56:43;100681.16;;;0.50;48.88
50672;BME280;46021;55.882;37.654;2023-04-08T02:59:10;100675.94;;;0.47;49.62
50672;BME280;46021;55.882;37.654;2023-04-08T03:01:37;100675.94;;;0.47;49.94
50672;BME280;46021;55.882;37.654;2023-04-08T03:04:05;100681.97;;;0.49;48.93
50672;BME280;46021;55.882;37.654;2023-04-08T03:06:32;100680.19;;;0.46;49.99
50672;BME280;46021;55.882;37.654;2023-04-08T03:09:00;100677.72;;;0.51;50.50
50672;BME280;46021;55.882;37.654;2023-04-08T03:11:27;100677.72;;;0.51;50.58
50672;BME280;46021;55.882;37.654;2023-04-08T03:13:55;100687.38;;;0.60;50.36
50672;BME280;46021;55.882;37.654;2023-04-08T03:16:22;100679.06;;;0.70;50.09
50672;BME280;46021;55.882;37.654;2023-04-08T03:18:49;100680.22;;;0.83;49.79
50672;BME280;46021;55.882;37.654;2023-04-08T03:21:16;100684.72;;;0.91;50.19
50672;BME280;46021;55.882;37.654;2023-04-08T03:23:44;100680.56;;;0.98;50.72
50672;BME280;46021;55.882;37.654;2023-04-08T03:26:12;100683.31;;;1.04;49.82
50672;BME280;46021;55.882;37.654;2023-04-08T03:28:39;100689.69;;;1.22;49.53
50672;BME280;46021;55.882;37.654;2023-04-08T03:31:06;100691.13;;;1.48;49.47
50672;BME280;46021;55.882;37.654;2023-04-08T03:33:33;100686.63;;;1.81;49.67
50672;BME280;46021;55.882;37.654;2023-04-08T03:36:00;100682.34;;;2.25;49.53
50672;BME280;46021;55.882;37.654;2023-04-08T03:38:27;100674.41;;;2.62;49.50
50672;BME280;46021;55.882;37.654;2023-04-08T03:40:54;100676.66;;;2.97;48.64
50672;BME280;46021;55.882;37.654;2023-04-08T03:43:23;100676.66;;;3.58;49.34
50672;BME280;46021;55.882;37.654;2023-04-08T03:45:50;100686.63;;;4.02;47.46
50672;BME280;46021;55.882;37.654;2023-04-08T03:48:17;100682.78;;;4.47;47.33
50672;BME280;46021;55.882;37.654;2023-04-08T03:50:44;100677.09;;;4.91;45.81
50672;BME280;46021;55.882;37.654;2023-04-08T03:53:12;100691.94;;;5.18;45.99
50672;BME280;46021;55.882;37.654;2023-04-08T03:55:39;100690.44;;;5.56;45.29
50672;BME280;46021;55.882;37.654;2023-04-08T03:58:06;100680.22;;;5.94;44.56
50672;BME280;46021;55.882;37.654;2023-04-08T04:00:35;100683.81;;;6.41;44.16
50672;BME280;46021;55.882;37.654;2023-04-08T04:03:03;100683.81;;;6.84;43.46
50672;BME280;46021;55.882;37.654;2023-04-08T04:05:30;100680.38;;;7.03;42.41
50672;BME280;46021;55.882;37.654;2023-04-08T04:07:57;100678.56;;;7.36;42.57
50672;BME280;46021;55.882;37.654;2023-04-08T04:10:24;100693.97;;;7.89;41.89
50672;BME280;46021;55.882;37.654;2023-04-08T04:12:51;100689.31;;;8.48;41.41
50672;BME280;46021;55.882;37.654;2023-04-08T04:15:18;100684.69;;;8.85;39.94
50672;BME280;46021;55.882;37.654;2023-04-08T04:17:48;100680.97;;;9.14;39.53
50672;BME280;46021;55.882;37.654;2023-04-08T04:20:16;100691.09;;;9.39;38.75
50672;BME280;46021;55.882;37.654;2023-04-08T04:22:43;100683.09;;;9.59;38.20
50672;BME280;46021;55.882;37.654;2023-04-08T04:25:10;100687.38;;;9.61;38.01
50672;BME280;46021;55.882;37.654;2023-04-08T04:27:38;100690.66;;;9.79;36.90
50672;BME280;46021;55.882;37.654;2023-04-08T04:30:06;100680.28;;;9.75;36.88
50672;BME280;46021;55.882;37.654;2023-04-08T04:32:34;100676.63;;;9.89;36.93
50672;BME280;46021;55.882;37.654;2023-04-08T04:35:03;100683.91;;;10.30;37.12
50672;BME280;46021;55.882;37.654;2023-04-08T04:37:30;100681.31;;;10.85;36.20
50672;BME280;46021;55.882;37.654;2023-04-08T04:39:57;100684.19;;;11.19;35.68
50672;BME280;46021;55.882;37.654;2023-04-08T04:42:24;100675.81;;;11.47;34.52
50672;BME280;46021;55.882;37.654;2023-04-08T04:44:52;100667.44;;;11.75;34.47
50672;BME280;46021;55.882;37.654;2023-04-08T04:47:19;100683.19;;;12.14;34.39
50672;BME280;46021;55.882;37.654;2023-04-08T04:49:46;100677.47;;;12.35;33.49
50672;BME280;46021;55.882;37.654;2023-04-08T04:52:14;100686.97;;;12.39;32.88
50672;BME280;46021;55.882;37.654;2023-04-08T04:54:42;100682.25;;;12.16;32.73
50672;BME280;46021;55.882;37.654;2023-04-08T04:57:09;100682.59;;;12.40;32.54
50672;BME280;46021;55.882;37.654;2023-04-08T04:59:36;100685.38;;;12.70;32.98
50672;BME280;46021;55.882;37.654;2023-04-08T05:02:03;100685.63;;;12.59;32.10
50672;BME280;46021;55.882;37.654;2023-04-08T05:04:30;100682.06;;;12.63;31.99
50672;BME280;46021;55.882;37.654;2023-04-08T05:06:58;100678.16;;;12.79;31.89
50672;BME280;46021;55.882;37.654;2023-04-08T05:09:28;100685.34;;;12.71;31.94
50672;BME280;46021;55.882;37.654;2023-04-08T05:11:55;100688.63;;;12.79;31.91
50672;BME280;46021;55.882;37.654;2023-04-08T05:14:22;100684.44;;;12.72;31.71
50672;BME280;46021;55.882;37.654;2023-04-08T05:16:49;100680.66;;;12.84;31.58
50672;BME280;46021;55.882;37.654;2023-04-08T05:19:16;100692.00;;;13.17;31.38
50672;BME280;46021;55.882;37.654;2023-04-08T05:21:43;100692.66;;;13.60;31.25
50672;BME280;46021;55.882;37.654;2023-04-08T05:24:10;100695.63;;;13.77;30.32
50672;BME280;46021;55.882;37.654;2023-04-08T05:26:39;100698.47;;;14.29;30.23
50672;BME280;46021;55.882;37.654;2023-04-08T05:29:06;100692.53;;;14.79;29.87
50672;BME280;46021;55.882;37.654;2023-04-08T05:31:33;100699.88;;;15.21;29.41
50672;BME280;46021;55.882;37.654;2023-04-08T05:34:00;100693.66;;;15.49;29.16
50672;BME280;46021;55.882;37.654;2023-04-08T05:36:27;100700.53;;;15.28;28.95
50672;BME280;46021;55.882;37.654;2023-04-08T05:38:54;100705.75;;;16.02;29.46
50672;BME280;46021;55.882;37.654;2023-04-08T05:41:22;100705.22;;;16.60;28.66
50672;BME280;46021;55.882;37.654;2023-04-08T05:43:50;100696.38;;;16.84;27.40
50672;BME280;46021;55.882;37.654;2023-04-08T05:46:17;100705.81;;;16.00;26.84
50672;BME280;46021;55.882;37.654;2023-04-08T05:48:44;100692.47;;;14.54;27.67
50672;BME280;46021;55.882;37.654;2023-04-08T05:51:15;100702.69;;;13.10;28.20
50672;BME280;46021;55.882;37.654;2023-04-08T05:53:44;100706.19;;;11.52;29.91
50672;BME280;46021;55.882;37.654;2023-04-08T05:56:12;100709.13;;;10.27;31.51
50672;BME280;46021;55.882;37.654;2023-04-08T05:58:39;100712.56;;;9.61;32.04
50672;BME280;46021;55.882;37.654;2023-04-08T06:01:07;100713.22;;;8.94;32.77
50672;BME280;46021;55.882;37.654;2023-04-08T06:03:34;100708.38;;;8.47;34.10
50672;BME280;46021;55.882;37.654;2023-04-08T06:06:01;100709.41;;;8.15;34.43
50672;BME280;46021;55.882;37.654;2023-04-08T06:08:29;100711.25;;;7.90;34.51
50672;BME280;46021;55.882;37.654;2023-04-08T06:10:56;100709.59;;;7.73;34.91
50672;BME280;46021;55.882;37.654;2023-04-08T06:13:23;100711.38;;;7.59;34.87
50672;BME280;46021;55.882;37.654;2023-04-08T06:15:50;100699.31;;;7.36;35.51
50672;BME280;46021;55.882;37.654;2023-04-08T06:18:19;100710.56;;;7.21;36.06
50672;BME280;46021;55.882;37.654;2023-04-08T06:20:46;100715.78;;;7.03;37.20
50672;BME280;46021;55.882;37.654;2023-04-08T06:23:13;100694.19;;;6.69;38.01
50672;BME280;46021;55.882;37.654;2023-04-08T06:25:40;100703.69;;;6.59;37.60
50672;BME280;46021;55.882;37.654;2023-04-08T06:28:07;100715.78;;;6.61;37.58
50672;BME280;46021;55.882;37.654;2023-04-08T06:30:34;100706.28;;;6.57;39.15
50672;BME280;46021;55.882;37.654;2023-04-08T06:33:02;100705.41;;;6.43;38.67
50672;BME280;46021;55.882;37.654;2023-04-08T06:35:30;100703.69;;;6.50;39.03
50672;BME280;46021;55.882;37.654;2023-04-08T06:37:57;100708.00;;;6.61;38.66
50672;BME280;46021;55.882;37.654;2023-04-08T06:40:24;100704.56;;;6.53;39.88
50672;BME280;46021;55.882;37.654;2023-04-08T06:42:52;100698.50;;;6.47;39.48
50672;BME280;46021;55.882;37.654;2023-04-08T06:45:48;100709.75;;;6.62;39.43
50672;BME280;46021;55.882;37.654;2023-04-08T06:48:16;100699.38;;;6.62;39.45
50672;BME280;46021;55.882;37.654;2023-04-08T06:50:45;100692.47;;;6.61;39.29
50672;BME280;46021;55.882;37.654;2023-04-08T06:53:12;100699.38;;;6.72;39.34
50672;BME280;46021;55.882;37.654;2023-04-08T06:55:39;100706.28;;;6.82;39.16
50672;BME280;46021;55.882;37.654;2023-04-08T06:58:06;100706.31;;;6.88;39.49
50672;BME280;46021;55.882;37.654;2023-04-08T07:00:33;100701.13;;;6.88;40.03
50672;BME280;46021;55.882;37.654;2023-04-08T07:03:01;100700.25;;;6.88;40.23
50672;BME280;46021;55.882;37.654;2023-04-08T07:05:28;100695.94;;;6.85;39.93
50672;BME280;46021;55.882;37.654;2023-04-08T07:07:57;100698.53;;;6.96;40.03
50672;BME280;46021;55.882;37.654;2023-04-08T07:10:24;100695.06;;;7.08;39.91
50672;BME280;46021;55.882;37.654;2023-04-08T07:12:51;100685.53;;;7.16;39.87
50672;BME280;46021;55.882;37.654;2023-04-08T07:15:19;100694.97;;;7.37;39.69
50672;BME280;46021;55.882;37.654;2023-04-08T07:17:46;100701.88;;;7.44;39.69
50672;BME280;46021;55.882;37.654;2023-04-08T07:20:13;100678.50;;;7.50;39.42
50672;BME280;46021;55.882;37.654;2023-04-08T07:22:41;100694.09;;;7.55;39.50
50672;BME280;46021;55.882;37.654;2023-04-08T07:25:09;100693.25;;;7.44;39.94
50672;BME280;46021;55.882;37.654;2023-04-08T07:27:38;100681.97;;;7.54;39.80
50672;BME280;46021;55.882;37.654;2023-04-08T07:30:06;100669.84;;;7.60;40.23
50672;BME280;46021;55.882;37.654;2023-04-08T07:32:33;100690.47;;;7.90;39.45
50672;BME280;46021;55.882;37.654;2023-04-08T07:35:01;100695.63;;;8.02;39.48
50672;BME280;46021;55.882;37.654;2023-04-08T07:37:28;100685.19;;;8.11;39.39
50672;BME280;46021;55.882;37.654;2023-04-08T07:39:55;100679.03;;;8.25;39.23
50672;BME280;46021;55.882;37.654;2023-04-08T07:42:24;100698.00;;;8.44;38.78
50672;BME280;46021;55.882;37.654;2023-04-08T07:44:52;100681.47;;;8.52;38.64
50672;BME280;46021;55.882;37.654;2023-04-08T07:47:19;100672.75;;;8.63;39.05
50672;BME280;46021;55.882;37.654;2023-04-08T07:49:46;100685.63;;;8.76;38.72
50672;BME280;46021;55.882;37.654;2023-04-08T07:52:13;100680.31;;;8.90;38.37
50672;BME280;46021;55.882;37.654;2023-04-08T07:54:40;100690.53;;;9.07;38.28
50672;BME280;46021;55.882;37.654;2023-04-08T07:57:07;100682.63;;;9.20;38.44
50672;BME280;46021;55.882;37.654;2023-04-08T07:59:36;100692.78;;;9.46;38.14
50672;BME280;46021;55.882;37.654;2023-04-08T08:02:03;100686.63;;;9.53;37.27
50672;BME280;46021;55.882;37.654;2023-04-08T08:04:30;100683.00;;;9.65;37.65
50672;BME280;46021;55.882;37.654;2023-04-08T08:06:57;100682.03;;;9.73;37.25
50672;BME280;46021;55.882;37.654;2023-04-08T08:09:24;100678.53;;;9.74;37.01
50672;BME280;46021;55.882;37.654;2023-04-08T08:11:51;100676.78;;;9.76;37.20
50672;BME280;46021;55.882;37.654;2023-04-08T08:14:19;100666.97;;;9.97;37.01
50672;BME280;46021;55.882;37.654;2023-04-08T08:16:47;100678.00;;;10.16;36.90
50672;BME280;46021;55.882;37.654;2023-04-08T08:19:15;100676.44;;;10.04;36.52
50672;BME280;46021;55.882;37.654;2023-04-08T08:21:42;100667.78;;;10.02;36.25
50672;BME280;46021;55.882;37.654;2023-04-08T08:24:09;100670.03;;;10.27;36.40
50672;BME280;46021;55.882;37.654;2023-04-08T08:26:36;100662.63;;;10.57;36.47
50672;BME280;46021;55.882;37.654;2023-04-08T08:29:04;100669.13;;;10.87;35.91
50672;BME280;46021;55.882;37.654;2023-04-08T08:31:33;100649.75;;;11.00;35.55
50672;BME280;46021;55.882;37.654;2023-04-08T08:34:01;100659.16;;;11.07;35.27
50672;BME280;46021;55.882;37.654;2023-04-08T08:36:28;100662.53;;;11.16;35.10
50672;BME280;46021;55.882;37.654;2023-04-08T08:38:55;100662.53;;;11.14;34.64
50672;BME280;46021;55.882;37.654;2023-04-08T08:41:23;100662.41;;;11.20;34.36
50672;BME280;46021;55.882;37.654;2023-04-08T08:43:50;100662.53;;;11.14;33.71
50672;BME280;46021;55.882;37.654;2023-04-08T08:46:18;100650.06;;;11.28;33.77
50672;BME280;46021;55.882;37.654;2023-04-08T08:48:46;100638.44;;;11.45;33.89
50672;BME280;46021;55.882;37.654;2023-04-08T08:51:14;100652.66;;;11.74;33.95
50672;BME280;46021;55.882;37.654;2023-04-08T08:53:41;100660.59;;;12.84;34.54
50672;BME280;46021;55.882;37.654;2023-04-08T08:56:10;100636.34;;;14.31;32.35
50672;BME280;46021;55.882;37.654;2023-04-08T08:58:37;100646.97;;;15.55;30.57
50672;BME280;46021;55.882;37.654;2023-04-08T09:01:32;100645.28;;;16.66;28.04
50672;BME280;46021;55.882;37.654;2023-04-08T09:04:07;100636.38;;;17.90;27.07
50672;BME280;46021;55.882;37.654;2023-04-08T09:06:36;100631.09;;;18.81;25.92
50672;BME280;46021;55.882;37.654;2023-04-08T09:09:04;100637.03;;;19.53;25.40
50672;BME280;46021;55.882;37.654;2023-04-08T09:11:35;100631.13;;;20.29;25.89
50672;BME280;46021;55.882;37.654;2023-04-08T09:14:03;100633.94;;;21.31;25.27
50672;BME280;46021;55.882;37.654;2023-04-08T09:16:31;100638.28;;;21.89;23.65
50672;BME280;46021;55.882;37.654;2023-04-08T09:19:07;100635.75;;;22.82;21.55
50672;BME280;46021;55.882;37.654;2023-04-08T09:21:38;100643.88;;;23.19;22.40
50672;BME280;46021;55.882;37.654;2023-04-08T09:24:07;100628.56;;;23.35;22.15
50672;BME280;46021;55.882;37.654;2023-04-08T09:26:35;100632.75;;;23.64;21.02
50672;BME280;46021;55.882;37.654;2023-04-08T09:29:05;100638.66;;;24.30;20.71
50672;BME280;46021;55.882;37.654;2023-04-08T09:31:33;100625.97;;;24.58;20.95
50672;BME280;46021;55.882;37.654;2023-04-08T09:34:09;100629.19;;;24.26;20.34
50672;BME280;46021;55.882;37.654;2023-04-08T09:36:39;100620.00;;;24.54;20.96
50672;BME280;46021;55.882;37.654;2023-04-08T09:39:06;100617.78;;;24.83;20.28
50672;BME280;46021;55.882;37.654;2023-04-08T09:41:35;100624.06;;;24.71;20.05
50672;BME280;46021;55.882;37.654;2023-04-08T09:44:03;100627.00;;;24.90;19.99
50672;BME280;46021;55.882;37.654;2023-04-08T09:46:44;100622.63;;;24.89;19.74
50672;BME280;46021;55.882;37.654;2023-04-08T09:49:17;100622.59;;;25.25;19.14
50672;BME280;46021;55.882;37.654;2023-04-08T09:51:53;100626.06;;;24.92;18.87
50672;BME280;46021;55.882;37.654;2023-04-08T09:54:33;100617.16;;;24.44;18.11
50672;BME280;46021;55.882;37.654;2023-04-08T09:57:09;100620.91;;;24.77;19.12
50672;BME280;46021;55.882;37.654;2023-04-08T09:59:38;100608.81;;;24.49;18.77
50672;BME280;46021;55.882;37.654;2023-04-08T10:02:10;100621.63;;;24.68;19.43
50672;BME280;46021;55.882;37.654;2023-04-08T10:04:43;100626.38;;;25.34;18.88
50672;BME280;46021;55.882;37.654;2023-04-08T10:07:14;100621.03;;;25.56;18.33
50672;BME280;46021;55.882;37.654;2023-04-08T10:09:41;100611.63;;;25.96;18.37
50672;BME280;46021;55.882;37.654;2023-04-08T10:12:08;100596.56;;;26.27;18.22
50672;BME280;46021;55.882;37.654;2023-04-08T10:14:36;100604.03;;;25.35;17.73
50672;BME280;46021;55.882;37.654;2023-04-08T10:17:23;100606.44;;;25.60;17.48
50672;BME280;46021;55.882;37.654;2023-04-08T10:19:52;100602.00;;;24.69;18.31
50672;BME280;46021;55.882;37.654;2023-04-08T10:22:48;100605.28;;;24.73;17.91
50672;BME280;46021;55.882;37.654;2023-04-08T10:25:29;100599.28;;;25.49;17.22
50672;BME280;46021;55.882;37.654;2023-04-08T10:27:57;100595.09;;;26.02;17.73
50672;BME280;46021;55.882;37.654;2023-04-08T10:30:42;100590.59;;;25.91;17.05
50672;BME280;46021;55.882;37.654;2023-04-08T10:33:11;100602.78;;;25.05;18.11
50672;BME280;46021;55.882;37.654;2023-04-08T10:35:41;100599.16;;;24.24;18.14
50672;BME280;46021;55.882;37.654;2023-04-08T10:38:13;100597.16;;;23.15;18.81
50672;BME280;46021;55.882;37.654;2023-04-08T10:40:42;100592.59;;;23.30;19.31
50672;BME280;46021;55.882;37.654;2023-04-08T10:43:09;100577.09;;;24.22;19.61
50672;BME280;46021;55.882;37.654;2023-04-08T10:45:37;100577.56;;;24.27;18.43
50672;BME280;46021;55.882;37.654;2023-04-08T10:48:15;100583.84;;;24.15;18.28
50672;BME280;46021;55.882;37.654;2023-04-08T10:50:43;100580.81;;;23.58;19.25
50672;BME280;46021;55.882;37.654;2023-04-08T10:53:11;100581.34;;;24.00;19.26
50672;BME280;46021;55.882;37.654;2023-04-08T10:55:40;100575.84;;;23.78;18.87
50672;BME280;46021;55.882;37.654;2023-04-08T10:58:09;100570.94;;;23.97;19.35
50672;BME280;46021;55.882;37.654;2023-04-08T11:00:38;100576.63;;;24.52;18.91
50672;BME280;46021;55.882;37.654;2023-04-08T11:03:07;100561.75;;;24.01;19.08
50672;BME280;46021;55.882;37.654;2023-04-08T11:05:35;100562.31;;;24.29;18.98
50672;BME280;46021;55.882;37.654;2023-04-08T11:08:04;100560.53;;;24.65;18.63
50672;BME280;46021;55.882;37.654;2023-04-08T11:10:36;100564.00;;;25.23;18.78
50672;BME280;46021;55.882;37.654;2023-04-08T11:13:07;100555.66;;;24.59;17.93
50672;BME280;46021;55.882;37.654;2023-04-08T11:15:35;100553.28;;;24.89;18.33
50672;BME280;46021;55.882;37.654;2023-04-08T11:18:02;100555.09;;;24.42;18.26
50672;BME280;46021;55.882;37.654;2023-04-08T11:20:31;100543.22;;;24.00;18.22
50672;BME280;46021;55.882;37.654;2023-04-08T11:23:00;100552.47;;;22.94;18.37
50672;BME280;46021;55.882;37.654;2023-04-08T11:25:28;100555.03;;;21.63;19.13
50672;BME280;46021;55.882;37.654;2023-04-08T11:27:56;100557.50;;;21.09;19.77
50672;BME280;46021;55.882;37.654;2023-04-08T11:30:26;100544.78;;;21.42;20.17
50672;BME280;46021;55.882;37.654;2023-04-08T11:32:55;100548.19;;;22.13;19.58
50672;BME280;46021;55.882;37.654;2023-04-08T11:35:22;100545.97;;;22.98;19.38
50672;BME280;46021;55.882;37.654;2023-04-08T11:37:51;100539.06;;;22.45;19.22
50672;BME280;46021;55.882;37.654;2023-04-08T11:40:19;100532.81;;;22.84;19.25
50672;BME280;46021;55.882;37.654;2023-04-08T11:42:48;100537.81;;;22.76;19.39
50672;BME280;46021;55.882;37.654;2023-04-08T11:45:17;100523.44;;;22.66;19.22
50672;BME280;46021;55.882;37.654;2023-04-08T11:47:47;100533.66;;;22.97;19.59
50672;BME280;46021;55.882;37.654;2023-04-08T11:50:22;100525.97;;;22.29;19.38
50672;BME280;46021;55.882;37.654;2023-04-08T11:52:50;100533.09;;;22.41;19.51
50672;BME280;46021;55.882;37.654;2023-04-08T11:55:22;100527.56;;;22.31;19.78
50672;BME280;46021;55.882;37.654;2023-04-08T11:57:50;100531.66;;;22.23;19.65
50672;BME280;46021;55.882;37.654;2023-04-08T12:00:17;100524.16;;;22.29;19.69
50672;BME280;46021;55.882;37.654;2023-04-08T12:02:44;100504.94;;;22.26;19.87
50672;BME280;46021;55.882;37.654;2023-04-08T12:05:13;100525.03;;;22.15;19.63
50672;BME280;46021;55.882;37.654;2023-04-08T12:07:41;100513.34;;;21.51;19.96
50672;BME280;46021;55.882;37.654;2023-04-08T12:10:08;100522.56;;;20.73;19.99
50672;BME280;46021;55.882;37.654;2023-04-08T12:12:36;100516.94;;;19.89;20.26
50672;BME280;46021;55.882;37.654;2023-04-08T12:15:04;100523.13;;;19.24;20.77
50672;BME280;46021;55.882;37.654;2023-04-08T12:17:31;100520.00;;;18.66;21.62
50672;BME280;46021;55.882;37.654;2023-04-08T12:19:58;100520.16;;;18.46;22.62
50672;BME280;46021;55.882;37.654;2023-04-08T12:22:27;100519.66;;;18.73;22.30
50672;BME280;46021;55.882;37.654;2023-04-08T12:24:54;100516.84;;;19.42;21.89
50672;BME280;46021;55.882;37.654;2023-04-08T12:27:21;100515.97;;;19.90;21.70
50672;BME280;46021;55.882;37.654;2023-04-08T12:29:48;100513.66;;;20.30;21.73
50672;BME280;46021;55.882;37.654;2023-04-08T12:32:16;100503.06;;;20.30;21.93
50672;BME280;46021;55.882;37.654;2023-04-08T12:34:43;100504.72;;;19.86;21.38
50672;BME280;46021;55.882;37.654;2023-04-08T12:37:10;100505.41;;;19.58;21.99
50672;BME280;46021;55.882;37.654;2023-04-08T12:39:39;100498.84;;;19.81;21.75
50672;BME280;46021;55.882;37.654;2023-04-08T12:42:06;100498.47;;;19.71;22.20
50672;BME280;46021;55.882;37.654;2023-04-08T12:44:33;100503.16;;;19.18;21.89
50672;BME280;46021;55.882;37.654;2023-04-08T12:47:01;100491.16;;;18.79;21.98
50672;BME280;46021;55.882;37.654;2023-04-08T12:49:28;100497.25;;;18.64;22.19
50672;BME280;46021;55.882;37.654;2023-04-08T12:51:55;100495.59;;;18.61;22.42